To NAV CANADA Home Page Login to a new session Search on AWWS site Feedback and Comments Disclaimer Vers la page française équivalente Tips FAQ What's new on the site To the Forecasts and Observations / NOTAM section To "File a Flight Plan" website Publications and other links Update of the User's profile FIC Telephone Numbers My Weather Data Folder Route Weather Data Regional Weather Data Local Weather Data To the Forecasts and Observations / NOTAM section
Request Generated 04/30/2016 at 05:16:01 UTC . Weather information available at that time is displayed.

METAR/TAF

EDMONTON/EDMONTON INTL/AB    

METAR CYEG 300500Z CCA 15009KT 15SM BKN074 11/01 A3006 RMK AC7
SLP192=
METAR CYEG 300500Z 15009KT 15SM 11/01 A3006 RMK SLP192=
METAR CYEG 300400Z 16007KT 15SM BKN073 12/01 A3005 RMK AC6 AC LYR
MOVD IN FM SE AND GRDLY LWRED SLP188=
METAR CYEG 300300Z 16009KT 15SM SCT097 SCT250 11/00 A3003 RMK AC4CI1
CI TR SLP185=

TAF CYEG 300241Z 3003/3024 16010G20KT P6SM BKN070
BECMG 3004/3006 16010KT
FM300700 16008KT P6SM SCT070
BECMG 3010/3012 VRB03KT
FM301400 20005KT P6SM BKN040 TEMPO 3015/3018 P6SM VCSH
BECMG 3016/3018 25008KT
FM302000 29010KT P6SM BKN060
RMK NXT FCST BY 300600Z=
Your time UTC time
Weather data provided by Environment Canada and NAV CANADA